Time;durP1;ratioP1;P1;durP2;ratioP2;P2;SDS_P1;SDS_P2;PMS_P1;PMS_P2;Temp;Humidity;BMP_temperature;BMP_pressure;BME280_temperature;BME280_humidity;BME280_pressure;Samples;Min_cycle;Max_cycle;Signal;HPM_P1;HPM_P2
2023/04/17 00:01:41;;;;;;;13.48;6.07;;;;;;;;;;5056533;28;20086;-78
2023/04/17 00:04:11;;;;;;;13.82;7.25;;;;;;;;;;5052095;28;20032;-77
2023/04/17 00:06:37;;;;;;;14.05;7.70;;;;;;;;;;5036691;28;20102;-77
2023/04/17 00:09:04;;;;;;;15.32;7.28;;;;;;;;;;5033196;28;20037;-76
2023/04/17 00:11:30;;;;;;;12.73;6.88;;;;;;;;;;5037353;28;20030;-76
2023/04/17 00:13:56;;;;;;;13.95;7.78;;;;;;;;;;5040189;28;20056;-76
2023/04/17 00:16:22;;;;;;;15.75;8.23;;;;;;;;;;5038897;28;20045;-76
2023/04/17 00:18:48;;;;;;;18.83;8.95;;;;;;;;;;5056781;28;20485;-76
2023/04/17 00:21:14;;;;;;;15.27;8.02;;;;;;;;;;5034973;28;20041;-77
2023/04/17 00:23:40;;;;;;;18.48;9.55;;;;;;;;;;5038491;28;20021;-77
2023/04/17 00:26:06;;;;;;;17.48;8.90;;;;;;;;;;5056979;28;20032;-76
2023/04/17 00:28:32;;;;;;;20.02;9.68;;;;;;;;;;5038477;28;20397;-77
2023/04/17 00:30:58;;;;;;;15.98;7.80;;;;;;;;;;5038490;28;20025;-78
2023/04/17 00:33:24;;;;;;;22.92;9.48;;;;;;;;;;5054677;28;20025;-76
2023/04/17 00:35:51;;;;;;;14.32;8.35;;;;;;;;;;5035807;28;20025;-76
2023/04/17 00:38:17;;;;;;;20.30;8.73;;;;;;;;;;5035655;28;20036;-76
2023/04/17 00:40:47;;;;;;;15.82;10.48;;;;;;;;;;5054480;28;20021;-75
2023/04/17 00:43:13;;;;;;;18.63;8.35;;;;;;;;;;5053810;28;20457;-75
2023/04/17 00:45:41;;;;;;;17.88;9.48;;;;;;;;;;5035840;28;20021;-77
2023/04/17 00:48:08;;;;;;;19.58;10.15;;;;;;;;;;5035909;28;20036;-76
2023/04/17 00:50:34;;;;;;;14.80;8.52;;;;;;;;;;5054572;28;20029;-76
2023/04/17 00:53:00;;;;;;;19.65;10.18;;;;;;;;;;5037085;28;20428;-75
2023/04/17 00:55:27;;;;;;;16.63;9.02;;;;;;;;;;5034315;28;20025;-77
2023/04/17 00:57:53;;;;;;;16.33;9.18;;;;;;;;;;5051708;28;20200;-76
2023/04/17 01:00:19;;;;;;;17.35;8.70;;;;;;;;;;5034285;28;20029;-77
2023/04/17 01:02:45;;;;;;;15.55;8.75;;;;;;;;;;5035764;28;20017;-77
2023/04/17 01:05:12;;;;;;;16.45;9.43;;;;;;;;;;5034288;28;20028;-76
2023/04/17 01:07:40;;;;;;;20.38;8.77;;;;;;;;;;5034214;28;20036;-78
2023/04/17 01:10:06;;;;;;;21.52;10.60;;;;;;;;;;5051976;28;20148;-76
2023/04/17 01:12:32;;;;;;;17.13;10.35;;;;;;;;;;5034233;28;20288;-76
2023/04/17 01:14:58;;;;;;;18.00;9.23;;;;;;;;;;5033476;28;20296;-76
2023/04/17 01:17:27;;;;;;;13.38;7.90;;;;;;;;;;5053586;28;20431;-76
2023/04/17 01:19:54;;;;;;;16.33;9.00;;;;;;;;;;5051891;28;20049;-76
2023/04/17 01:22:20;;;;;;;15.95;7.57;;;;;;;;;;5033708;28;20397;-76
2023/04/17 01:24:47;;;;;;;14.85;7.50;;;;;;;;;;5051343;28;20521;-76
2023/04/17 01:27:14;;;;;;;15.48;8.20;;;;;;;;;;5052014;28;20033;-76
2023/04/17 01:29:40;;;;;;;13.23;8.23;;;;;;;;;;5051382;28;20083;-77
2023/04/17 01:32:06;;;;;;;18.38;7.68;;;;;;;;;;5033623;28;20035;-77
2023/04/17 01:34:33;;;;;;;17.05;8.05;;;;;;;;;;5052150;28;20049;-77
2023/04/17 01:36:59;;;;;;;19.95;10.10;;;;;;;;;;5034345;28;20037;-76
2023/04/17 01:39:25;;;;;;;16.63;9.63;;;;;;;;;;5034404;28;20029;-76
2023/04/17 01:41:51;;;;;;;17.80;10.70;;;;;;;;;;5036106;28;20396;-76
2023/04/17 01:44:17;;;;;;;22.35;10.95;;;;;;;;;;5052601;28;20060;-76
2023/04/17 01:46:43;;;;;;;18.13;10.40;;;;;;;;;;5036297;28;20552;-76
2023/04/17 01:49:10;;;;;;;23.30;11.57;;;;;;;;;;5035113;28;20067;-77
2023/04/17 01:51:36;;;;;;;24.92;10.27;;;;;;;;;;5070559;28;20017;-78
2023/04/17 01:54:02;;;;;;;22.27;10.30;;;;;;;;;;5069733;28;20029;-76
2023/04/17 01:56:28;;;;;;;24.73;9.80;;;;;;;;;;5052679;28;20042;-76
2023/04/17 01:58:54;;;;;;;23.83;10.55;;;;;;;;;;5053591;28;20399;-78
2023/04/17 02:01:20;;;;;;;26.58;11.57;;;;;;;;;;5071202;28;20092;-76
2023/04/17 02:03:46;;;;;;;18.55;10.50;;;;;;;;;;5053326;28;20020;-77
2023/04/17 02:06:12;;;;;;;17.50;10.98;;;;;;;;;;5052970;28;20051;-77
2023/04/17 02:08:38;;;;;;;19.23;11.43;;;;;;;;;;5053846;28;20032;-78
2023/04/17 02:11:04;;;;;;;26.08;11.13;;;;;;;;;;5071933;28;20020;-76
2023/04/17 02:13:30;;;;;;;20.10;9.30;;;;;;;;;;5070831;28;20025;-77
2023/04/17 02:15:56;;;;;;;20.38;11.27;;;;;;;;;;5071509;28;20048;-76
2023/04/17 02:18:22;;;;;;;26.40;12.70;;;;;;;;;;5072764;28;20060;-77
2023/04/17 02:20:48;;;;;;;25.75;9.73;;;;;;;;;;5073212;28;20021;-78
2023/04/17 02:23:14;;;;;;;22.70;10.57;;;;;;;;;;5053951;28;20029;-76
2023/04/17 02:25:40;;;;;;;25.15;8.82;;;;;;;;;;5072068;28;20021;-75
2023/04/17 02:28:06;;;;;;;26.98;11.00;;;;;;;;;;5055349;28;20029;-82
2023/04/17 02:30:32;;;;;;;21.48;11.43;;;;;;;;;;5057370;28;20029;-78
2023/04/17 02:32:58;;;;;;;19.67;10.93;;;;;;;;;;5072321;28;20025;-76
2023/04/17 02:35:26;;;;;;;24.55;10.77;;;;;;;;;;5053617;28;20443;-78
2023/04/17 02:37:53;;;;;;;30.35;13.48;;;;;;;;;;5043701;28;20116;-76
2023/04/17 02:40:19;;;;;;;25.83;11.18;;;;;;;;;;5034068;28;20040;-76
2023/04/17 02:42:45;;;;;;;23.77;14.25;;;;;;;;;;5050172;28;20029;-76
2023/04/17 02:45:11;;;;;;;26.45;12.48;;;;;;;;;;5033955;28;20428;-76
2023/04/17 02:47:37;;;;;;;25.90;12.80;;;;;;;;;;5053668;28;20029;-76
2023/04/17 02:50:04;;;;;;;31.33;13.63;;;;;;;;;;5036058;28;20032;-76
2023/04/17 02:52:31;;;;;;;36.05;16.52;;;;;;;;;;5053781;28;20048;-76
2023/04/17 02:54:57;;;;;;;32.65;13.30;;;;;;;;;;5035410;28;20067;-76
2023/04/17 02:57:23;;;;;;;31.13;12.68;;;;;;;;;;5034942;28;20029;-76
2023/04/17 02:59:50;;;;;;;27.30;13.00;;;;;;;;;;5053337;28;20096;-75
2023/04/17 03:02:20;;;;;;;37.67;15.15;;;;;;;;;;5054223;28;20060;-76
2023/04/17 03:04:48;;;;;;;27.15;15.32;;;;;;;;;;5054164;28;20025;-76
2023/04/17 03:07:16;;;;;;;28.83;13.68;;;;;;;;;;5053932;28;20021;-76
2023/04/17 03:09:44;;;;;;;32.53;17.13;;;;;;;;;;5036054;28;20021;-76
2023/04/17 03:12:10;;;;;;;36.53;14.55;;;;;;;;;;5035695;28;20031;-76
2023/04/17 03:14:36;;;;;;;33.15;15.40;;;;;;;;;;5035500;28;20127;-76
2023/04/17 03:17:02;;;;;;;33.92;17.90;;;;;;;;;;5036220;28;20037;-78
2023/04/17 03:19:28;;;;;;;38.63;17.67;;;;;;;;;;5056349;28;20064;-79
2023/04/17 03:21:54;;;;;;;36.40;18.95;;;;;;;;;;5037355;28;20021;-76
2023/04/17 03:24:20;;;;;;;38.90;16.85;;;;;;;;;;5055116;28;20029;-81
2023/04/17 03:26:46;;;;;;;42.75;17.85;;;;;;;;;;5054792;28;20017;-81
2023/04/17 03:29:12;;;;;;;38.47;16.77;;;;;;;;;;5037934;28;20029;-79
2023/04/17 03:31:41;;;;;;;44.97;21.88;;;;;;;;;;5037448;28;20120;-77
2023/04/17 03:34:07;;;;;;;41.97;19.00;;;;;;;;;;5037761;28;20025;-80
2023/04/17 03:36:33;;;;;;;43.67;19.33;;;;;;;;;;5055296;28;20028;-76
2023/04/17 03:38:59;;;;;;;43.47;22.17;;;;;;;;;;5054305;28;20037;-80
2023/04/17 03:41:25;;;;;;;48.83;19.40;;;;;;;;;;5034902;28;20557;-76
2023/04/17 03:43:51;;;;;;;49.00;18.70;;;;;;;;;;5035631;28;20025;-76
2023/04/17 03:46:17;;;;;;;43.03;19.75;;;;;;;;;;5035933;28;20021;-75
2023/04/17 03:48:43;;;;;;;46.13;21.17;;;;;;;;;;5053114;28;20432;-75
2023/04/17 03:51:09;;;;;;;42.85;20.38;;;;;;;;;;5053312;28;20112;-77
2023/04/17 03:53:35;;;;;;;39.13;17.63;;;;;;;;;;5051734;28;20021;-75
2023/04/17 03:56:01;;;;;;;48.95;21.20;;;;;;;;;;5032703;28;20025;-76
2023/04/17 03:58:27;;;;;;;43.72;21.02;;;;;;;;;;5051908;28;20025;-78
2023/04/17 04:00:54;;;;;;;49.00;19.13;;;;;;;;;;5050930;28;20218;-76
2023/04/17 04:03:23;;;;;;;51.35;21.15;;;;;;;;;;5051620;28;20035;-75
2023/04/17 04:05:49;;;;;;;49.67;21.45;;;;;;;;;;5051706;28;20029;-77
2023/04/17 04:08:16;;;;;;;42.20;21.70;;;;;;;;;;5052107;28;20029;-76
2023/04/17 04:10:45;;;;;;;49.10;20.30;;;;;;;;;;5051871;28;20025;-75
2023/04/17 04:13:14;;;;;;;46.80;21.25;;;;;;;;;;5052606;28;20452;-76
2023/04/17 04:15:40;;;;;;;57.33;20.88;;;;;;;;;;5071258;28;20135;-76
2023/04/17 04:18:06;;;;;;;46.92;19.15;;;;;;;;;;5054349;28;20131;-76
2023/04/17 04:20:32;;;;;;;45.95;20.17;;;;;;;;;;5054638;28;20029;-76
2023/04/17 04:22:58;;;;;;;47.08;22.70;;;;;;;;;;5054170;28;20039;-76
2023/04/17 04:25:27;;;;;;;46.47;19.75;;;;;;;;;;5054138;28;20025;-77
2023/04/17 04:27:55;;;;;;;39.65;19.27;;;;;;;;;;5053824;28;20246;-76
2023/04/17 04:30:21;;;;;;;41.30;18.80;;;;;;;;;;5053729;28;20028;-77
2023/04/17 04:32:47;;;;;;;48.95;20.35;;;;;;;;;;5053592;28;20507;-76
2023/04/17 04:35:14;;;;;;;46.33;20.52;;;;;;;;;;5071529;28;20493;-76
2023/04/17 04:37:41;;;;;;;53.17;20.95;;;;;;;;;;5053405;28;20039;-76
2023/04/17 04:40:10;;;;;;;48.80;22.08;;;;;;;;;;5071576;28;20025;-76
2023/04/17 04:42:38;;;;;;;44.85;20.60;;;;;;;;;;5054142;28;20021;-77
2023/04/17 04:45:04;;;;;;;50.95;22.30;;;;;;;;;;5053751;28;20060;-76
2023/04/17 04:47:30;;;;;;;54.47;20.20;;;;;;;;;;5071986;28;20032;-75
2023/04/17 04:49:56;;;;;;;47.10;20.45;;;;;;;;;;5053833;28;20028;-76
2023/04/17 04:52:22;;;;;;;48.10;20.48;;;;;;;;;;5054151;28;20020;-76
2023/04/17 04:54:48;;;;;;;49.17;22.23;;;;;;;;;;5071655;28;20039;-77
2023/04/17 04:57:15;;;;;;;47.38;25.27;;;;;;;;;;5054243;28;20032;-76
2023/04/17 04:59:41;;;;;;;53.25;21.00;;;;;;;;;;5072498;28;20043;-76
2023/04/17 05:02:07;;;;;;;53.22;21.23;;;;;;;;;;5053998;28;20496;-76
2023/04/17 05:04:33;;;;;;;47.35;21.80;;;;;;;;;;5053974;28;20016;-76
2023/04/17 05:06:59;;;;;;;49.72;20.35;;;;;;;;;;5071173;28;20424;-76
2023/04/17 05:09:25;;;;;;;54.20;22.90;;;;;;;;;;5053767;28;20527;-75
2023/04/17 05:11:55;;;;;;;50.50;22.08;;;;;;;;;;5053927;28;20111;-75
2023/04/17 05:14:22;;;;;;;50.67;22.33;;;;;;;;;;5053221;28;20024;-77
2023/04/17 05:16:48;;;;;;;52.42;23.90;;;;;;;;;;5053388;28;20036;-75
2023/04/17 05:19:14;;;;;;;52.17;23.02;;;;;;;;;;5053817;28;20051;-75
2023/04/17 05:21:40;;;;;;;50.22;22.48;;;;;;;;;;5071477;28;20024;-76
2023/04/17 05:24:06;;;;;;;43.65;22.42;;;;;;;;;;5053131;28;20027;-76
2023/04/17 05:26:32;;;;;;;42.53;19.95;;;;;;;;;;5053497;28;20039;-77
2023/04/17 05:28:58;;;;;;;50.55;22.85;;;;;;;;;;5070968;28;20091;-76
2023/04/17 05:31:25;;;;;;;56.78;22.45;;;;;;;;;;5053789;28;20070;-76
2023/04/17 05:33:51;;;;;;;43.22;23.42;;;;;;;;;;5070986;28;20024;-76
2023/04/17 05:36:17;;;;;;;60.58;26.27;;;;;;;;;;5052974;28;20020;-76
2023/04/17 05:38:43;;;;;;;55.92;23.25;;;;;;;;;;5052637;28;20112;-76
2023/04/17 05:41:09;;;;;;;55.35;21.40;;;;;;;;;;5052744;28;20017;-76
2023/04/17 05:43:35;;;;;;;61.90;25.58;;;;;;;;;;5070536;28;20025;-76
2023/04/17 05:46:01;;;;;;;48.35;22.30;;;;;;;;;;5070535;28;20021;-77
2023/04/17 05:48:27;;;;;;;53.67;23.45;;;;;;;;;;5070598;28;20263;-76
2023/04/17 05:50:53;;;;;;;41.38;22.65;;;;;;;;;;5046613;28;20032;-76
2023/04/17 05:53:19;;;;;;;53.25;25.58;;;;;;;;;;5069744;28;20059;-76
2023/04/17 05:55:46;;;;;;;61.47;24.05;;;;;;;;;;5070441;28;20527;-76
2023/04/17 05:58:11;;;;;;;48.85;22.70;;;;;;;;;;5051995;28;20510;-76
2023/04/17 06:00:37;;;;;;;56.15;23.92;;;;;;;;;;5070421;28;20025;-76
2023/04/17 06:03:04;;;;;;;47.45;21.13;;;;;;;;;;5051210;28;20031;-76
2023/04/17 06:05:31;;;;;;;48.55;21.88;;;;;;;;;;5052256;28;20021;-75
2023/04/17 06:07:57;;;;;;;55.03;20.88;;;;;;;;;;5070147;28;20021;-75
2023/04/17 06:10:23;;;;;;;50.13;21.63;;;;;;;;;;5070992;28;20078;-76
2023/04/17 06:12:48;;;;;;;52.28;21.42;;;;;;;;;;5070366;28;20031;-76
2023/04/17 06:15:14;;;;;;;44.67;20.00;;;;;;;;;;5070056;28;20524;-76
2023/04/17 06:17:41;;;;;;;46.65;22.08;;;;;;;;;;5070448;28;20044;-76
2023/04/17 06:20:10;;;;;;;50.00;20.65;;;;;;;;;;5071325;28;20027;-76
2023/04/17 06:22:43;;;;;;;46.45;20.27;;;;;;;;;;5070692;28;20021;-76
2023/04/17 06:25:09;;;;;;;39.90;20.10;;;;;;;;;;5070857;28;20020;-76
2023/04/17 06:27:35;;;;;;;47.67;22.25;;;;;;;;;;5071575;28;20031;-76
2023/04/17 06:30:01;;;;;;;44.10;22.30;;;;;;;;;;5071894;28;20021;-76
2023/04/17 06:32:27;;;;;;;47.03;20.20;;;;;;;;;;5071825;28;20032;-78
2023/04/17 06:34:53;;;;;;;42.25;19.35;;;;;;;;;;5070388;28;20029;-76
2023/04/17 06:37:19;;;;;;;41.28;20.60;;;;;;;;;;5071050;28;20047;-77
2023/04/17 06:39:45;;;;;;;44.70;18.67;;;;;;;;;;5070091;28;20027;-76
2023/04/17 06:42:11;;;;;;;40.60;19.58;;;;;;;;;;5070126;28;20536;-76
2023/04/17 06:44:37;;;;;;;39.70;16.75;;;;;;;;;;5070508;28;20507;-76
2023/04/17 06:47:03;;;;;;;46.78;19.88;;;;;;;;;;5070492;28;20099;-76
2023/04/17 06:49:32;;;;;;;38.67;18.25;;;;;;;;;;5072753;28;20427;-79
2023/04/17 06:51:59;;;;;;;40.92;18.38;;;;;;;;;;5073404;28;20017;-80
2023/04/17 06:54:25;;;;;;;40.47;19.80;;;;;;;;;;5071931;28;20146;-80
2023/04/17 06:56:51;;;;;;;39.50;17.85;;;;;;;;;;5071372;28;20330;-79
2023/04/17 06:59:18;;;;;;;45.05;19.52;;;;;;;;;;5053021;28;20039;-79
2023/04/17 07:01:44;;;;;;;38.40;18.33;;;;;;;;;;5053385;28;20025;-79
2023/04/17 07:04:11;;;;;;;35.35;17.55;;;;;;;;;;5053168;28;20024;-77
2023/04/17 07:06:38;;;;;;;39.72;16.77;;;;;;;;;;5073127;28;20112;-80
2023/04/17 07:09:04;;;;;;;44.20;19.00;;;;;;;;;;5054647;28;20025;-80
2023/04/17 07:11:31;;;;;;;46.13;22.77;;;;;;;;;;5053369;28;20051;-80
2023/04/17 07:13:57;;;;;;;34.70;17.48;;;;;;;;;;5071614;28;20105;-77
2023/04/17 07:16:23;;;;;;;35.58;15.93;;;;;;;;;;5053867;28;20056;-80
2023/04/17 07:18:50;;;;;;;39.38;17.60;;;;;;;;;;5071722;28;20575;-78
2023/04/17 07:21:16;;;;;;;43.92;18.17;;;;;;;;;;5052154;28;20170;-78
2023/04/17 07:23:42;;;;;;;36.22;18.08;;;;;;;;;;5069612;28;20020;-77
2023/04/17 07:26:08;;;;;;;35.28;19.20;;;;;;;;;;5070670;28;20032;-77
2023/04/17 07:28:36;;;;;;;37.58;16.55;;;;;;;;;;5073054;28;20515;-78
2023/04/17 07:31:03;;;;;;;34.58;19.58;;;;;;;;;;5057046;28;20170;-77
2023/04/17 07:33:29;;;;;;;34.10;18.05;;;;;;;;;;5059323;28;20078;-77
2023/04/17 07:35:55;;;;;;;43.90;19.52;;;;;;;;;;5059908;28;20465;-77
2023/04/17 07:38:21;;;;;;;41.20;17.75;;;;;;;;;;5058296;28;20371;-77
2023/04/17 07:40:47;;;;;;;33.58;16.90;;;;;;;;;;5075945;28;20020;-77
2023/04/17 07:43:14;;;;;;;34.42;15.40;;;;;;;;;;5058874;28;20423;-77
2023/04/17 07:45:40;;;;;;;32.85;17.30;;;;;;;;;;5076421;28;20034;-77
2023/04/17 07:48:06;;;;;;;35.63;17.00;;;;;;;;;;5057916;28;20028;-77
2023/04/17 07:50:32;;;;;;;36.60;19.38;;;;;;;;;;5056670;28;20052;-78
2023/04/17 07:52:58;;;;;;;33.80;15.48;;;;;;;;;;5070079;28;20039;-78
2023/04/17 07:55:24;;;;;;;32.00;14.07;;;;;;;;;;5055556;28;20092;-78
2023/04/17 07:57:50;;;;;;;31.35;14.98;;;;;;;;;;5055161;28;20086;-78
2023/04/17 08:00:16;;;;;;;32.97;16.73;;;;;;;;;;5073418;28;20099;-78
2023/04/17 08:02:42;;;;;;;31.27;14.93;;;;;;;;;;5072929;28;20024;-78
2023/04/17 08:05:09;;;;;;;33.47;15.98;;;;;;;;;;5074905;28;20115;-78
2023/04/17 08:07:35;;;;;;;29.75;16.13;;;;;;;;;;5062012;28;20073;-78
2023/04/17 08:10:02;;;;;;;35.78;15.82;;;;;;;;;;5048375;28;20255;-78
2023/04/17 08:12:28;;;;;;;31.35;14.73;;;;;;;;;;5076205;28;20031;-79
2023/04/17 08:14:54;;;;;;;29.25;14.65;;;;;;;;;;5044418;28;20057;-79
2023/04/17 08:17:22;;;;;;;30.88;13.48;;;;;;;;;;5063709;28;20082;-78
2023/04/17 08:19:56;;;;;;;37.25;15.90;;;;;;;;;;5063716;28;20099;-78
2023/04/17 08:22:23;;;;;;;33.58;14.88;;;;;;;;;;5060156;28;20308;-77
2023/04/17 08:24:49;;;;;;;29.20;14.20;;;;;;;;;;5062346;28;20040;-76
2023/04/17 08:27:15;;;;;;;26.88;14.15;;;;;;;;;;5058446;28;20075;-77
2023/04/17 08:29:42;;;;;;;29.35;14.68;;;;;;;;;;5039194;28;20033;-77
2023/04/17 08:32:09;;;;;;;31.80;13.68;;;;;;;;;;5061566;28;20084;-76
2023/04/17 08:34:36;;;;;;;24.92;13.15;;;;;;;;;;5039945;28;20029;-77
2023/04/17 08:37:02;;;;;;;23.40;13.10;;;;;;;;;;5062974;28;20111;-76
2023/04/17 08:39:28;;;;;;;23.83;14.10;;;;;;;;;;5044144;28;20021;-76
2023/04/17 08:41:59;;;;;;;24.52;12.45;;;;;;;;;;5059229;28;20036;-76
2023/04/17 08:44:25;;;;;;;20.58;12.32;;;;;;;;;;5061724;28;20067;-76
2023/04/17 08:46:52;;;;;;;24.00;12.48;;;;;;;;;;5043184;28;20021;-76
2023/04/17 08:49:18;;;;;;;21.58;12.52;;;;;;;;;;5042433;28;20099;-76
2023/04/17 08:51:45;;;;;;;27.50;13.32;;;;;;;;;;5058879;28;20101;-76
2023/04/17 08:54:11;;;;;;;25.52;13.25;;;;;;;;;;5041615;28;20096;-77
2023/04/17 08:56:37;;;;;;;24.98;12.25;;;;;;;;;;5060022;28;20032;-76
2023/04/17 08:59:04;;;;;;;27.75;13.73;;;;;;;;;;5040576;28;20382;-76
2023/04/17 09:01:32;;;;;;;22.67;12.00;;;;;;;;;;5058936;28;20017;-76
2023/04/17 09:03:58;;;;;;;23.48;12.50;;;;;;;;;;5065452;28;20020;-77
2023/04/17 09:06:24;;;;;;;28.33;14.50;;;;;;;;;;5062274;28;20020;-78
2023/04/17 09:09:08;;;;;;;22.67;12.52;;;;;;;;;;5080008;28;20316;-76
2023/04/17 09:11:35;;;;;;;22.58;11.77;;;;;;;;;;5059569;28;20576;-76
2023/04/17 09:14:01;;;;;;;20.67;11.93;;;;;;;;;;5083329;28;20016;-77
2023/04/17 09:16:28;;;;;;;22.65;13.00;;;;;;;;;;5080947;28;20044;-75
2023/04/17 09:19:03;;;;;;;22.25;13.15;;;;;;;;;;5081386;28;20107;-77
2023/04/17 09:21:29;;;;;;;23.88;12.13;;;;;;;;;;5079091;28;20055;-75
2023/04/17 09:23:58;;;;;;;19.50;11.40;;;;;;;;;;5076236;28;20513;-76
2023/04/17 09:26:25;;;;;;;24.27;12.10;;;;;;;;;;5077448;28;20260;-75
2023/04/17 09:29:03;;;;;;;19.65;12.38;;;;;;;;;;5058692;28;20032;-75
2023/04/17 09:31:31;;;;;;;23.08;12.25;;;;;;;;;;5060252;28;20063;-76
2023/04/17 09:34:00;;;;;;;21.02;12.10;;;;;;;;;;5074332;28;20021;-76
2023/04/17 09:36:26;;;;;;;21.38;12.30;;;;;;;;;;5080192;28;20099;-79
2023/04/17 09:38:53;;;;;;;22.05;12.40;;;;;;;;;;5080425;28;20337;-76
2023/04/17 09:41:23;;;;;;;25.85;14.00;;;;;;;;;;5080554;28;20028;-76
2023/04/17 09:43:49;;;;;;;25.52;12.63;;;;;;;;;;5079255;28;20031;-76
2023/04/17 09:46:34;;;;;;;23.48;11.00;;;;;;;;;;5079862;28;20142;-79
2023/04/17 09:49:08;;;;;;;16.98;9.43;;;;;;;;;;5061500;28;20028;-79
2023/04/17 09:51:34;;;;;;;18.00;9.90;;;;;;;;;;5062087;28;20300;-78
2023/04/17 09:54:04;;;;;;;22.05;11.88;;;;;;;;;;5061897;28;20112;-82
2023/04/17 09:56:32;;;;;;;20.65;9.95;;;;;;;;;;5078942;28;20058;-78
2023/04/17 09:58:59;;;;;;;22.92;11.45;;;;;;;;;;5062225;28;20040;-76
2023/04/17 10:01:25;;;;;;;21.33;10.70;;;;;;;;;;5079819;28;20016;-78
2023/04/17 10:03:51;;;;;;;17.27;10.43;;;;;;;;;;5076534;28;20032;-77
2023/04/17 10:06:17;;;;;;;21.52;12.07;;;;;;;;;;5063385;28;20118;-77
2023/04/17 10:08:43;;;;;;;24.70;10.85;;;;;;;;;;5061752;28;20025;-78
2023/04/17 10:11:09;;;;;;;16.75;9.68;;;;;;;;;;5079985;28;20028;-76
2023/04/17 10:13:37;;;;;;;20.33;12.30;;;;;;;;;;5060948;28;20017;-78
2023/04/17 10:16:04;;;;;;;20.60;10.95;;;;;;;;;;5078129;28;20056;-77
2023/04/17 10:18:30;;;;;;;18.77;10.13;;;;;;;;;;5054439;28;20488;-79
2023/04/17 10:20:56;;;;;;;19.55;10.35;;;;;;;;;;5044335;28;20028;-79
2023/04/17 10:23:40;;;;;;;21.27;10.65;;;;;;;;;;5037814;28;20104;-79
2023/04/17 10:26:25;;;;;;;15.55;8.93;;;;;;;;;;5038970;28;20033;-79
2023/04/17 10:28:52;;;;;;;13.05;7.40;;;;;;;;;;5040634;28;20036;-78
2023/04/17 10:31:19;;;;;;;15.65;9.45;;;;;;;;;;5059616;28;20024;-77
2023/04/17 10:33:48;;;;;;;19.23;7.60;;;;;;;;;;5060807;28;20323;-77
2023/04/17 10:36:35;;;;;;;11.95;8.15;;;;;;;;;;5060043;28;20084;-81
2023/04/17 10:39:14;;;;;;;13.05;8.52;;;;;;;;;;5038443;28;20460;-78
2023/04/17 10:42:00;;;;;;;14.77;8.30;;;;;;;;;;5065536;28;20206;-79
2023/04/17 10:44:26;;;;;;;14.88;8.30;;;;;;;;;;5058502;28;20025;-77
2023/04/17 10:46:52;;;;;;;15.13;9.82;;;;;;;;;;5058764;28;20046;-77
2023/04/17 10:49:20;;;;;;;16.20;9.48;;;;;;;;;;5076071;28;20039;-76
2023/04/17 10:51:46;;;;;;;12.00;7.15;;;;;;;;;;5061945;28;20028;-75
2023/04/17 10:54:14;;;;;;;12.95;7.38;;;;;;;;;;5078154;28;20036;-77
2023/04/17 10:56:47;;;;;;;14.25;6.90;;;;;;;;;;5079934;28;20120;-77
2023/04/17 10:59:17;;;;;;;11.68;7.60;;;;;;;;;;5078914;28;20060;-76
2023/04/17 11:01:50;;;;;;;14.25;8.45;;;;;;;;;;5077524;28;20309;-76
2023/04/17 11:04:20;;;;;;;13.68;7.50;;;;;;;;;;5071806;28;20090;-77
2023/04/17 11:06:46;;;;;;;13.98;7.97;;;;;;;;;;5044714;28;20063;-76
2023/04/17 11:09:12;;;;;;;12.43;6.72;;;;;;;;;;5064675;28;20048;-79
2023/04/17 11:11:42;;;;;;;11.48;6.20;;;;;;;;;;5041932;28;20028;-79
2023/04/17 11:14:09;;;;;;;;;;;;;;;;;;5057915;28;20484;-78
2023/04/17 11:16:36;;;;;;;11.95;6.32;;;;;;;;;;5041508;28;20177;-78
2023/04/17 11:19:03;;;;;;;11.52;6.80;;;;;;;;;;5063230;28;20032;-78
2023/04/17 11:21:31;;;;;;;12.30;7.10;;;;;;;;;;5062876;28;20021;-77
2023/04/17 11:24:01;;;;;;;11.80;5.77;;;;;;;;;;5051399;28;20053;-78
2023/04/17 11:26:27;;;;;;;11.15;6.25;;;;;;;;;;5052158;28;20060;-77
2023/04/17 11:28:53;;;;;;;9.00;6.55;;;;;;;;;;5051527;28;20025;-76
2023/04/17 11:31:19;;;;;;;9.13;5.15;;;;;;;;;;5051233;28;20903;-76
2023/04/17 11:33:47;;;;;;;10.05;6.20;;;;;;;;;;5035618;28;20378;-77
2023/04/17 11:36:13;;;;;;;9.40;4.95;;;;;;;;;;5052004;28;20466;-77
2023/04/17 11:38:48;;;;;;;10.50;5.45;;;;;;;;;;5034159;28;20115;-78
2023/04/17 11:41:14;;;;;;;10.68;5.80;;;;;;;;;;5053846;28;20024;-77
2023/04/17 11:43:40;;;;;;;7.35;5.28;;;;;;;;;;5036783;28;20538;-78
2023/04/17 11:46:06;;;;;;;9.05;5.88;;;;;;;;;;5034976;28;20544;-78
2023/04/17 11:48:32;;;;;;;11.90;6.32;;;;;;;;;;5037122;28;20144;-76
2023/04/17 11:51:05;;;;;;;11.38;5.50;;;;;;;;;;5051465;28;20024;-78
2023/04/17 11:53:34;;;;;;;10.10;6.00;;;;;;;;;;5040696;28;20409;-77
2023/04/17 11:56:15;;;;;;;8.87;6.00;;;;;;;;;;5061391;28;20016;-77
2023/04/17 11:58:51;;;;;;;7.90;5.10;;;;;;;;;;5040652;28;20095;-77
2023/04/17 12:01:18;;;;;;;9.30;5.85;;;;;;;;;;5053276;28;20401;-79
2023/04/17 12:03:46;;;;;;;7.65;4.75;;;;;;;;;;5054849;28;20029;-78
2023/04/17 12:06:12;;;;;;;7.40;4.75;;;;;;;;;;5048482;28;20032;-76
2023/04/17 12:08:46;;;;;;;8.23;3.92;;;;;;;;;;5055429;28;20485;-78
2023/04/17 12:11:16;;;;;;;5.75;4.03;;;;;;;;;;5033410;28;20108;-78
2023/04/17 12:13:42;;;;;;;8.10;4.13;;;;;;;;;;5034376;28;20032;-78
2023/04/17 12:16:08;;;;;;;7.82;3.90;;;;;;;;;;5035973;28;20389;-77
2023/04/17 12:18:35;;;;;;;6.32;4.30;;;;;;;;;;5060048;28;20056;-76
2023/04/17 12:21:00;;;;;;;7.70;4.22;;;;;;;;;;5053513;28;20025;-77
2023/04/17 12:23:26;;;;;;;6.53;4.25;;;;;;;;;;5051959;28;20044;-79
2023/04/17 12:25:52;;;;;;;6.85;3.78;;;;;;;;;;5048812;28;20025;-79
2023/04/17 12:28:19;;;;;;;5.95;4.10;;;;;;;;;;5031629;28;20036;-78
2023/04/17 12:30:45;;;;;;;5.70;4.00;;;;;;;;;;5049080;28;20485;-79
2023/04/17 12:33:11;;;;;;;9.75;3.85;;;;;;;;;;5034234;28;20079;-78
2023/04/17 12:35:37;;;;;;;7.38;4.20;;;;;;;;;;5070126;28;20056;-76
2023/04/17 12:38:03;;;;;;;6.75;4.25;;;;;;;;;;5069056;28;20029;-78
2023/04/17 12:40:31;;;;;;;8.05;4.15;;;;;;;;;;5070135;28;20447;-77
2023/04/17 12:42:57;;;;;;;7.07;3.60;;;;;;;;;;5069050;28;20078;-79
2023/04/17 12:45:23;;;;;;;3.40;3.00;;;;;;;;;;5069803;28;20020;-79
2023/04/17 12:47:49;;;;;;;6.10;3.42;;;;;;;;;;5070520;28;20388;-78
2023/04/17 12:50:15;;;;;;;4.55;4.03;;;;;;;;;;5049888;28;20473;-76
2023/04/17 12:52:41;;;;;;;5.18;3.15;;;;;;;;;;5050895;28;20036;-79
2023/04/17 12:55:08;;;;;;;5.80;3.70;;;;;;;;;;5039746;28;20021;-80
2023/04/17 12:57:35;;;;;;;5.72;3.53;;;;;;;;;;5054078;28;20037;-77
2023/04/17 13:00:04;;;;;;;4.10;3.08;;;;;;;;;;5070445;28;20020;-78
2023/04/17 13:02:30;;;;;;;4.43;3.03;;;;;;;;;;5068953;28;20496;-79
2023/04/17 13:04:56;;;;;;;2.92;2.08;;;;;;;;;;5056872;28;20412;-78
2023/04/17 13:07:23;;;;;;;3.58;2.78;;;;;;;;;;5048294;28;20029;-76
2023/04/17 13:09:49;;;;;;;3.97;2.95;;;;;;;;;;5030382;28;20021;-79
2023/04/17 13:12:15;;;;;;;3.70;2.78;;;;;;;;;;5029828;28;20036;-76
2023/04/17 13:14:41;;;;;;;2.78;2.25;;;;;;;;;;5049172;28;20037;-78
2023/04/17 13:17:07;;;;;;;6.65;2.78;;;;;;;;;;5048317;28;20020;-75
2023/04/17 13:19:34;;;;;;;2.92;2.50;;;;;;;;;;5053766;28;20044;-76
2023/04/17 13:22:01;;;;;;;5.47;2.60;;;;;;;;;;5031309;28;20389;-76
2023/04/17 13:24:27;;;;;;;5.13;2.38;;;;;;;;;;5059008;28;20438;-78
2023/04/17 13:26:56;;;;;;;2.55;1.95;;;;;;;;;;5057958;28;20072;-76
2023/04/17 13:29:22;;;;;;;2.70;2.15;;;;;;;;;;5069010;28;20086;-77
2023/04/17 13:31:48;;;;;;;2.33;2.13;;;;;;;;;;5038575;28;20344;-77
2023/04/17 13:34:14;;;;;;;1.90;1.63;;;;;;;;;;5049205;28;20029;-78
2023/04/17 13:36:41;;;;;;;2.13;1.85;;;;;;;;;;5046980;28;20096;-75
2023/04/17 13:39:08;;;;;;;2.22;1.92;;;;;;;;;;5047091;28;20507;-76
2023/04/17 13:41:34;;;;;;;3.60;2.75;;;;;;;;;;5048826;28;20191;-76
2023/04/17 13:44:00;;;;;;;2.25;1.83;;;;;;;;;;5047624;28;20091;-76
2023/04/17 13:46:26;;;;;;;2.78;2.33;;;;;;;;;;5050548;28;20087;-76
2023/04/17 13:48:52;;;;;;;3.80;2.40;;;;;;;;;;5047214;28;20067;-76
2023/04/17 13:51:18;;;;;;;3.50;2.55;;;;;;;;;;5052945;28;20481;-75
2023/04/17 13:53:44;;;;;;;3.92;2.28;;;;;;;;;;5054984;28;20163;-75
2023/04/17 13:56:10;;;;;;;7.50;3.30;;;;;;;;;;5031181;28;20556;-75
2023/04/17 13:58:36;;;;;;;4.63;2.40;;;;;;;;;;5031284;28;20489;-75
2023/04/17 14:01:02;;;;;;;2.75;2.28;;;;;;;;;;5034081;28;20024;-75
2023/04/17 14:03:28;;;;;;;2.85;2.65;;;;;;;;;;5050424;28;20684;-79
2023/04/17 14:05:55;;;;;;;2.63;1.90;;;;;;;;;;5049639;28;20089;-79
2023/04/17 14:08:21;;;;;;;2.67;1.90;;;;;;;;;;5050140;28;20028;-78
2023/04/17 14:10:47;;;;;;;3.30;2.53;;;;;;;;;;5030453;28;20025;-74
2023/04/17 14:13:13;;;;;;;5.50;3.28;;;;;;;;;;5047471;28;20033;-76
2023/04/17 14:15:39;;;;;;;2.53;2.15;;;;;;;;;;5047266;28;20386;-77
2023/04/17 14:18:05;;;;;;;2.03;1.83;;;;;;;;;;5047590;28;20036;-75
2023/04/17 14:20:31;;;;;;;2.45;2.15;;;;;;;;;;5048648;28;20036;-75
2023/04/17 14:22:58;;;;;;;4.15;3.63;;;;;;;;;;5030815;28;20509;-77
2023/04/17 14:25:24;;;;;;;3.00;2.25;;;;;;;;;;5048516;28;20075;-74